Time;durP1;ratioP1;P1;durP2;ratioP2;P2;SDS_P1;SDS_P2;PMS_P1;PMS_P2;Temp;Humidity;BMP_temperature;BMP_pressure;BME280_temperature;BME280_humidity;BME280_pressure;Samples;Min_cycle;Max_cycle;Signal;HPM_P1;HPM_P2
2022/04/26 03:36:47;;;;;;;3.17;1.65;;;;;;;4.48;49.30;100085.13;5026511;28;20124;-54
2022/04/26 03:39:17;;;;;;;3.15;1.83;;;;;;;4.43;48.69;100086.84;5026571;28;20477;-54
2022/04/26 03:41:48;;;;;;;3.72;1.80;;;;;;;4.54;49.86;100085.16;5026150;28;20467;-54
2022/04/26 03:44:19;;;;;;;2.70;1.85;;;;;;;4.45;50.13;100069.59;5026071;28;20126;-53
2022/04/26 03:46:49;;;;;;;3.72;2.25;;;;;;;4.41;50.27;100041.97;5025420;28;20057;-54
2022/04/26 03:49:20;;;;;;;4.47;2.00;;;;;;;4.41;50.41;100073.00;5025821;28;20042;-54
2022/04/26 03:51:53;;;;;;;5.03;1.55;;;;;;;4.31;50.97;100041.91;5026005;28;20059;-51
2022/04/26 03:54:25;;;;;;;5.05;2.30;;;;;;;4.41;50.26;100057.50;5025726;28;20379;-53
2022/04/26 03:56:56;;;;;;;6.40;2.05;;;;;;;4.45;50.23;100043.72;5026365;28;20060;-53
2022/04/26 03:59:26;;;;;;;4.57;2.10;;;;;;;4.41;50.33;100041.97;5025915;28;20392;-53
2022/04/26 04:01:57;;;;;;;3.55;2.00;;;;;;;4.39;50.15;100043.69;5025906;28;20121;-54
2022/04/26 04:04:28;;;;;;;8.07;2.33;;;;;;;4.50;50.36;100018.75;5025756;28;20065;-53
2022/04/26 04:07:01;;;;;;;4.88;2.17;;;;;;;4.40;50.38;100040.25;5025754;28;20081;-53
2022/04/26 04:09:32;;;;;;;5.75;2.20;;;;;;;4.26;50.37;100033.25;5025757;28;20060;-54
2022/04/26 04:12:03;;;;;;;7.07;2.20;;;;;;;4.16;51.40;100054.75;5025648;28;20065;-53
2022/04/26 04:14:34;;;;;;;3.50;2.15;;;;;;;4.14;51.14;100032.34;5025844;28;20084;-53
2022/04/26 04:17:05;;;;;;;5.32;2.20;;;;;;;4.16;52.04;100028.91;5025833;28;20091;-54
2022/04/26 04:19:36;;;;;;;4.63;2.08;;;;;;;4.03;51.94;100050.38;5025698;28;20340;-54
2022/04/26 04:22:08;;;;;;;3.20;1.80;;;;;;;3.99;52.45;100043.44;5025247;28;20111;-54
2022/04/26 04:24:39;;;;;;;4.38;1.88;;;;;;;3.93;53.09;100017.56;5025513;28;20057;-53
2022/04/26 04:27:10;;;;;;;4.97;2.15;;;;;;;3.95;52.86;99995.19;5025383;28;20089;-53
2022/04/26 04:29:45;;;;;;;8.10;2.20;;;;;;;4.13;51.97;99995.28;5025295;28;20049;-53
2022/04/26 04:32:16;;;;;;;7.22;1.95;;;;;;;4.21;52.69;100009.09;5025125;28;20092;-52
2022/04/26 04:34:47;;;;;;;11.43;2.58;;;;;;;4.10;53.11;99997.84;5025161;28;20240;-52
2022/04/26 04:37:19;;;;;;;5.97;2.20;;;;;;;4.01;53.23;100000.38;5025183;28;20050;-54
2022/04/26 04:39:50;;;;;;;4.70;2.20;;;;;;;3.91;54.14;99988.25;5025290;28;20089;-53
2022/04/26 04:42:22;;;;;;;9.18;2.70;;;;;;;3.88;54.32;99973.59;5025019;28;20065;-54
2022/04/26 04:44:52;;;;;;;9.88;2.20;;;;;;;3.94;53.84;99970.16;5025104;28;20081;-53
2022/04/26 04:47:23;;;;;;;6.45;2.92;;;;;;;4.01;53.21;99959.00;5024728;28;20120;-54
2022/04/26 04:49:54;;;;;;;3.92;1.88;;;;;;;4.10;53.25;99948.72;5024979;28;20053;-53
2022/04/26 04:52:26;;;;;;;6.85;2.33;;;;;;;4.16;53.76;99945.28;5025041;28;20076;-54
2022/04/26 04:54:57;;;;;;;4.90;1.95;;;;;;;4.02;53.68;99940.03;5024763;28;20045;-53
2022/04/26 04:57:27;;;;;;;10.45;2.20;;;;;;;4.02;55.04;99951.28;5024850;28;20049;-52
2022/04/26 05:00:01;;;;;;;7.72;2.28;;;;;;;3.95;54.55;99927.97;5024119;28;20294;-53
2022/04/26 05:02:32;;;;;;;10.82;2.42;;;;;;;3.88;55.04;99927.91;5024728;28;20053;-54
2022/04/26 05:05:02;;;;;;;10.43;2.60;;;;;;;3.85;55.50;99914.97;5025374;28;20062;-54
2022/04/26 05:07:35;;;;;;;9.63;2.65;;;;;;;3.87;55.95;99905.53;5025219;28;20233;-53
2022/04/26 05:10:08;;;;;;;9.68;2.65;;;;;;;3.92;56.41;99915.00;5024623;28;20053;-53
2022/04/26 05:12:38;;;;;;;8.68;2.70;;;;;;;3.93;56.29;99914.16;5024297;28;20247;-54
2022/04/26 05:15:10;;;;;;;19.52;3.13;;;;;;;3.87;56.65;99889.16;5025441;28;20114;-54
2022/04/26 05:17:41;;;;;;;12.52;2.90;;;;;;;3.60;56.63;99853.69;5024617;28;20057;-56
2022/04/26 05:20:12;;;;;;;10.35;2.75;;;;;;;3.76;57.12;99886.50;5024044;28;20066;-55
2022/04/26 05:25:37;;;;;;;2.92;2.30;;;;;;;3.77;56.80;99875.31;5024968;28;20116;-54
2022/04/26 05:28:08;;;;;;;7.68;2.75;;;;;;;3.75;57.39;99853.78;5024475;28;20125;-55
2022/04/26 05:30:39;;;;;;;5.68;2.55;;;;;;;3.75;57.13;99853.78;5024241;28;20041;-54
2022/04/26 05:33:09;;;;;;;21.63;3.72;;;;;;;3.75;57.11;99858.09;5025167;28;20092;-54
2022/04/26 05:35:40;;;;;;;8.48;2.70;;;;;;;3.66;57.41;99838.22;5023877;28;20100;-56
2022/04/26 05:38:13;;;;;;;11.13;2.67;;;;;;;3.55;58.07;99829.56;5039431;28;20045;-53
2022/04/26 05:40:44;;;;;;;12.13;2.72;;;;;;;3.60;57.69;99827.88;5023823;28;20054;-54
2022/04/26 05:43:15;;;;;;;9.23;2.85;;;;;;;3.58;58.26;99835.59;5024077;28;20121;-53
2022/04/26 05:45:46;;;;;;;8.70;3.13;;;;;;;3.53;58.31;99834.72;5023390;28;20121;-54
2022/04/26 05:48:16;;;;;;;13.68;3.75;;;;;;;3.52;58.69;99819.19;5023766;28;20046;-54
2022/04/26 05:50:47;;;;;;;8.23;2.63;;;;;;;3.65;57.95;99826.16;5023886;28;20136;-54
2022/04/26 05:53:19;;;;;;;4.13;2.30;;;;;;;3.79;57.65;99850.31;5023762;28;20293;-53
2022/04/26 05:55:50;;;;;;;14.05;3.30;;;;;;;3.80;58.15;99841.72;5023964;28;20069;-55
2022/04/26 05:58:21;;;;;;;12.48;3.05;;;;;;;3.84;58.43;99851.25;5023690;28;20243;-53
2022/04/26 06:00:52;;;;;;;9.02;2.72;;;;;;;3.85;58.19;99829.69;5023775;28;20654;-53
2022/04/26 06:03:23;;;;;;;16.77;3.40;;;;;;;3.83;58.65;99815.91;5023407;28;20049;-56
2022/04/26 06:05:55;;;;;;;7.28;2.92;;;;;;;3.87;59.10;99827.13;5022514;28;20061;-54
2022/04/26 06:08:27;;;;;;;12.65;3.33;;;;;;;3.86;58.67;99831.41;5024074;28;20085;-54
2022/04/26 06:10:58;;;;;;;16.08;2.97;;;;;;;3.85;59.05;99821.94;5022810;28;20574;-54
2022/04/26 06:13:29;;;;;;;12.68;3.17;;;;;;;3.76;58.68;99797.78;5023612;28;20053;-56
2022/04/26 06:16:00;;;;;;;12.77;3.20;;;;;;;3.86;58.74;99810.72;5023363;28;20053;-55
2022/04/26 06:18:31;;;;;;;6.35;2.92;;;;;;;3.86;58.86;99805.56;5023514;28;20049;-53
2022/04/26 06:21:01;;;;;;;12.98;3.22;;;;;;;3.93;59.09;99808.19;5023509;28;20060;-54
2022/04/26 06:23:34;;;;;;;10.57;3.17;;;;;;;3.95;59.47;99798.72;5023473;28;20456;-55
2022/04/26 06:26:05;;;;;;;10.25;2.97;;;;;;;3.99;58.70;99787.50;5023619;28;20061;-54
2022/04/26 06:28:36;;;;;;;8.98;3.10;;;;;;;4.07;59.05;99783.25;5023841;28;20299;-55
2022/04/26 06:31:06;;;;;;;13.70;3.78;;;;;;;4.03;59.31;99760.81;5023956;28;20092;-51
2022/04/26 06:33:37;;;;;;;10.48;2.90;;;;;;;4.10;59.43;99772.91;5023525;28;20057;-53
2022/04/26 06:36:08;;;;;;;11.07;3.22;;;;;;;4.15;59.44;99776.34;5023754;28;20065;-55
2022/04/26 06:38:40;;;;;;;8.23;3.03;;;;;;;4.15;59.87;99768.59;5023598;28;20048;-54
2022/04/26 06:41:11;;;;;;;10.40;3.33;;;;;;;4.13;59.81;99785.81;5023488;28;20046;-54
2022/04/26 06:43:42;;;;;;;15.45;3.60;;;;;;;4.15;59.94;99791.88;5023177;28;20052;-57
2022/04/26 06:46:12;;;;;;;8.35;2.83;;;;;;;4.06;59.36;99771.16;5023492;28;20472;-55
2022/04/26 06:48:48;;;;;;;9.60;3.63;;;;;;;4.04;60.11;99753.06;5023413;28;20788;-54
2022/04/26 06:51:19;;;;;;;14.80;3.85;;;;;;;3.99;59.98;99743.56;5023473;28;20408;-54
2022/04/26 06:53:52;;;;;;;10.50;3.45;;;;;;;4.00;60.18;99750.47;5023403;28;20353;-53
2022/04/26 06:56:22;;;;;;;7.32;2.80;;;;;;;4.04;59.96;99747.00;5023317;28;20370;-53
2022/04/26 06:58:55;;;;;;;10.95;3.60;;;;;;;4.01;59.93;99722.03;5024393;28;20053;-54
2022/04/26 07:01:26;;;;;;;11.05;3.60;;;;;;;4.17;60.18;99743.59;5023170;28;20056;-54
2022/04/26 07:04:12;;;;;;;12.98;5.72;;;;;;;4.17;60.15;99733.28;5023494;28;20495;-53
2022/04/26 07:06:43;;;;;;;10.27;3.33;;;;;;;4.32;59.61;99735.00;5022976;28;20053;-54
2022/04/26 07:09:16;;;;;;;10.00;3.35;;;;;;;4.41;59.72;99744.47;5023366;28;20348;-54
2022/04/26 07:11:47;;;;;;;9.05;3.33;;;;;;;4.51;59.61;99733.25;5022797;28;20060;-50
2022/04/26 07:14:17;;;;;;;16.77;3.25;;;;;;;4.42;60.22;99743.59;5023158;28;20061;-54
2022/04/26 07:16:49;;;;;;;12.18;3.58;;;;;;;4.04;61.64;99747.00;5023249;28;20061;-54
2022/04/26 07:19:22;;;;;;;10.52;3.00;;;;;;;3.65;62.75;99738.31;5022859;28;20255;-55
2022/04/26 07:21:52;;;;;;;14.45;2.50;;;;;;;3.39;63.44;99710.66;5023623;28;20624;-54
2022/04/26 07:24:35;;;;;;;9.88;3.13;;;;;;;3.29;63.99;99739.88;5026406;28;20053;-55
2022/04/26 07:27:06;;;;;;;7.85;2.33;;;;;;;3.10;65.20;99717.44;5026447;28;20056;-53
2022/04/26 07:29:41;;;;;;;8.32;2.40;;;;;;;2.95;65.96;99706.16;5026487;28;20057;-53
2022/04/26 07:32:12;;;;;;;11.13;3.08;;;;;;;2.76;66.28;99707.75;5026399;28;20132;-54
2022/04/26 07:34:41;;;;;;;8.43;2.58;;;;;;;2.59;66.75;99689.59;5026198;28;20037;-55
2022/04/26 07:37:12;;;;;;;14.85;3.22;;;;;;;2.65;67.00;99687.94;5026054;28;20058;-56
2022/04/26 07:39:45;;;;;;;21.77;4.55;;;;;;;2.76;67.14;99691.44;5027068;28;20116;-56
2022/04/26 07:42:15;;;;;;;13.63;3.72;;;;;;;2.70;67.26;99686.25;5026213;28;20050;-54
2022/04/26 07:44:46;;;;;;;21.85;4.07;;;;;;;2.59;67.60;99681.84;5025878;28;20054;-54
2022/04/26 07:47:17;;;;;;;10.02;3.78;;;;;;;2.54;67.59;99686.13;5025960;28;20069;-54
2022/04/26 07:49:48;;;;;;;9.40;2.65;;;;;;;2.48;67.79;99691.25;5026095;28;20053;-54
2022/04/26 07:52:18;;;;;;;12.38;2.72;;;;;;;2.41;68.41;99692.06;5026025;28;20049;-51
2022/04/26 07:54:51;;;;;;;13.00;3.47;;;;;;;2.48;68.35;99701.56;5025669;28;20046;-54
2022/04/26 07:57:22;;;;;;;11.68;3.60;;;;;;;1.95;67.87;99598.94;5025888;28;20113;-53
2022/04/26 07:59:53;;;;;;;17.73;3.20;;;;;;;2.46;68.40;99674.91;5025772;28;20050;-53
2022/04/26 08:02:24;;;;;;;9.13;2.80;;;;;;;2.45;68.44;99675.75;5025664;28;20044;-54
2022/04/26 08:05:01;;;;;;;8.52;2.67;;;;;;;2.40;68.38;99682.59;5026091;28;20064;-54
2022/04/26 08:07:33;;;;;;;14.95;2.90;;;;;;;2.43;68.57;99677.47;5025779;28;20061;-54
2022/04/26 08:10:07;;;;;;;7.43;2.67;;;;;;;2.43;68.47;99672.31;5025842;28;20067;-55
2022/04/26 08:12:38;;;;;;;14.15;3.67;;;;;;;2.40;68.40;99667.13;5026467;28;20061;-51
2022/04/26 08:15:13;;;;;;;20.27;3.67;;;;;;;2.40;68.35;99661.97;5026333;28;20080;-55
2022/04/26 08:17:44;;;;;;;15.65;3.75;;;;;;;2.43;68.70;99664.56;5025817;28;20054;-54
2022/04/26 08:20:14;;;;;;;19.90;4.15;;;;;;;2.42;68.39;99655.13;5025933;28;20046;-55
2022/04/26 08:22:45;;;;;;;10.18;3.63;;;;;;;2.35;68.61;99661.09;5026245;28;20124;-51
2022/04/26 08:28:05;;;;;;;18.52;4.75;;;;;;;2.23;68.96;99658.41;5026421;28;20060;-55
2022/04/26 08:30:36;;;;;;;21.77;5.07;;;;;;;2.31;69.33;99661.91;5026759;28;20376;-55
2022/04/26 08:33:07;;;;;;;19.83;5.22;;;;;;;2.25;69.30;99674.75;5025646;28;20124;-55
2022/04/26 08:35:38;;;;;;;15.00;3.80;;;;;;;2.26;69.40;99684.19;5025054;28;20462;-55
2022/04/26 08:38:28;;;;;;;18.42;3.95;;;;;;;2.24;69.64;99688.47;5026119;28;20091;-54
2022/04/26 08:41:00;;;;;;;14.00;4.00;;;;;;;2.20;69.32;99668.66;5026124;28;20599;-56
2022/04/26 08:43:33;;;;;;;13.18;3.53;;;;;;;2.11;69.35;99682.34;5026509;28;20052;-56
2022/04/26 08:46:04;;;;;;;14.32;3.38;;;;;;;2.05;69.87;99679.75;5025800;28;20049;-53
2022/04/26 08:51:22;;;;;;;11.93;3.80;;;;;;;2.01;70.32;99681.41;5025193;28;20189;-57
2022/04/26 08:53:52;;;;;;;12.80;3.25;;;;;;;2.02;70.55;99685.75;5024978;28;20089;-54
2022/04/26 08:56:28;;;;;;;14.27;3.50;;;;;;;1.95;70.35;99678.81;5024766;28;20320;-54
2022/04/26 08:58:58;;;;;;;11.75;3.08;;;;;;;1.97;70.48;99682.22;5025317;28;20117;-56
2022/04/26 09:01:29;;;;;;;16.08;4.05;;;;;;;1.80;70.80;99691.50;5025305;28;20054;-55
2022/04/26 09:04:01;;;;;;;17.23;3.75;;;;;;;1.73;71.08;99693.19;5025361;28;20108;-55
2022/04/26 09:06:40;;;;;;;18.83;3.45;;;;;;;1.63;71.68;99676.75;5025382;28;20241;-54
2022/04/26 09:09:17;;;;;;;6.07;2.10;;;;;;;1.62;71.72;99690.50;5024436;28;20053;-55
2022/04/26 09:11:50;;;;;;;14.63;3.85;;;;;;;1.41;71.87;99664.50;5024470;28;20070;-54
2022/04/26 09:14:32;;;;;;;17.13;3.70;;;;;;;1.49;72.15;99668.03;5024635;28;20053;-52
2022/04/26 09:17:07;;;;;;;14.38;3.78;;;;;;;1.56;72.28;99690.41;5024637;28;20103;-54
2022/04/26 09:19:49;;;;;;;14.82;3.10;;;;;;;1.52;72.61;99691.22;5024399;28;20287;-53
2022/04/26 09:22:27;;;;;;;14.00;3.60;;;;;;;1.50;72.52;99700.66;5024247;28;20061;-53
2022/04/26 09:25:01;;;;;;;17.27;4.18;;;;;;;1.42;72.84;99697.13;5024621;28;20041;-54
2022/04/26 09:27:37;;;;;;;15.00;4.38;;;;;;;1.18;73.45;99659.97;5024194;28;20148;-52
2022/04/26 09:30:12;;;;;;;25.50;4.55;;;;;;;1.35;73.53;99690.16;5024264;28;20069;-54
2022/04/26 09:32:47;;;;;;;17.10;3.85;;;;;;;1.19;73.39;99669.41;5024232;28;20061;-54
2022/04/26 09:35:21;;;;;;;12.00;3.55;;;;;;;1.25;73.71;99682.34;5024017;28;20073;-54
2022/04/26 09:37:51;;;;;;;13.65;3.33;;;;;;;1.13;74.10;99674.50;5024159;28;20112;-53
2022/04/26 09:40:31;;;;;;;11.82;2.53;;;;;;;0.96;74.04;99639.97;5023165;28;20154;-54
2022/04/26 09:43:03;;;;;;;16.88;3.58;;;;;;;1.22;73.94;99679.75;5023888;28;20092;-53
2022/04/26 09:45:34;;;;;;;17.67;3.85;;;;;;;1.17;74.30;99673.66;5023718;28;20307;-55
2022/04/26 09:48:05;;;;;;;19.08;4.10;;;;;;;1.11;74.46;99665.88;5023978;28;20117;-53
2022/04/26 09:50:35;;;;;;;13.45;3.80;;;;;;;1.02;75.24;99650.31;5024487;28;20061;-54
2022/04/26 09:53:06;;;;;;;19.17;3.13;;;;;;;1.01;75.55;99669.19;5024960;28;20106;-56
2022/04/26 09:55:39;;;;;;;13.30;3.20;;;;;;;0.91;75.53;99651.91;5024109;28;20057;-54
2022/04/26 09:58:12;;;;;;;12.70;3.85;;;;;;;0.79;76.77;99650.91;5024234;28;20376;-55
2022/04/26 10:00:44;;;;;;;19.67;4.57;;;;;;;0.80;76.21;99644.94;5023930;28;20061;-56
2022/04/26 10:03:19;;;;;;;23.27;5.38;;;;;;;0.77;76.70;99638.84;5023974;28;20049;-56
2022/04/26 10:05:56;;;;;;;17.23;4.20;;;;;;;0.68;76.67;99634.47;5023393;28;20061;-56
2022/04/26 10:08:30;;;;;;;16.38;4.15;;;;;;;0.70;77.10;99631.91;5023580;28;20235;-55
2022/04/26 10:11:02;;;;;;;16.77;4.22;;;;;;;0.65;77.74;99624.16;5023529;28;20124;-56
2022/04/26 10:13:39;;;;;;;15.77;3.88;;;;;;;0.23;77.96;99553.34;5023496;28;20268;-54
2022/04/26 10:16:11;;;;;;;25.02;4.38;;;;;;;0.62;77.94;99618.94;5024481;28;20069;-54
2022/04/26 10:18:45;;;;;;;19.52;3.60;;;;;;;0.58;78.58;99612.06;5023860;28;20068;-53
2022/04/26 10:21:47;;;;;;;16.48;4.03;;;;;;;0.48;79.04;99599.94;5025633;28;20048;-55
2022/04/26 10:24:20;;;;;;;16.42;3.60;;;;;;;0.52;79.11;99606.81;5023619;28;20062;-55
2022/04/26 10:26:52;;;;;;;23.02;4.50;;;;;;;0.50;79.09;99599.09;5023585;28;20046;-55
2022/04/26 10:29:26;;;;;;;15.70;4.28;;;;;;;0.50;79.51;99575.09;5023104;28;20050;-54
2022/04/26 10:32:02;;;;;;;19.25;4.43;;;;;;;0.37;79.56;99562.06;5024029;28;20055;-53
2022/04/26 10:34:35;;;;;;;18.08;3.65;;;;;;;0.38;79.84;99563.81;5023455;28;20363;-52
2022/04/26 10:37:33;;;;;;;11.05;3.40;;;;;;;0.41;80.09;99586.97;5023421;28;20054;-53
2022/04/26 10:40:05;;;;;;;23.63;5.25;;;;;;;0.34;80.61;99572.31;5017265;28;20100;-53
2022/04/26 10:42:36;;;;;;;16.30;3.95;;;;;;;0.39;80.50;99569.81;5023253;28;20415;-52
2022/04/26 10:45:12;;;;;;;20.48;4.75;;;;;;;0.19;80.57;99536.13;5023125;28;20054;-53
2022/04/26 10:47:45;;;;;;;19.52;4.40;;;;;;;0.28;81.11;99551.69;5023443;28;20062;-55
2022/04/26 10:50:32;;;;;;;27.30;4.63;;;;;;;0.28;80.93;99554.25;5023083;28;20082;-54
2022/04/26 10:53:05;;;;;;;22.15;3.78;;;;;;;0.34;80.92;99556.88;5023141;28;20139;-55
2022/04/26 10:55:36;;;;;;;26.27;4.95;;;;;;;0.38;80.87;99553.53;5023210;28;20308;-53
2022/04/26 10:58:06;;;;;;;19.75;4.10;;;;;;;0.31;81.20;99540.59;5026196;28;20045;-54
2022/04/26 11:00:41;;;;;;;24.02;4.45;;;;;;;0.26;80.91;99527.66;5026686;28;20052;-53
2022/04/26 11:03:13;;;;;;;19.50;3.83;;;;;;;0.27;80.96;99529.38;5026458;28;20111;-54
2022/04/26 11:05:44;;;;;;;23.13;4.50;;;;;;;0.24;80.87;99508.78;5025567;28;20053;-53
2022/04/26 11:08:16;;;;;;;16.58;5.10;;;;;;;0.27;80.80;99503.69;5026721;28;20909;-54
2022/04/26 11:11:09;;;;;;;26.10;4.50;;;;;;;0.27;80.73;99506.25;5027979;28;20053;-54
2022/04/26 11:13:40;;;;;;;28.83;4.60;;;;;;;0.29;80.55;99502.00;5027974;28;20068;-53
2022/04/26 11:16:16;;;;;;;27.15;4.72;;;;;;;0.32;80.50;99499.47;5026937;28;20423;-54
2022/04/26 11:18:47;;;;;;;13.90;3.35;;;;;;;0.31;80.57;99484.91;5026734;28;20061;-54
2022/04/26 11:21:18;;;;;;;23.67;4.95;;;;;;;0.28;80.46;99482.31;5026831;28;20408;-54
2022/04/26 11:29:51;;;;;;;20.02;4.47;;;;;;;0.20;80.56;99465.91;4994549;28;20124;-52
2022/04/26 11:32:38;;;;;;;25.73;4.85;;;;;;;0.23;80.54;99465.97;5017105;28;20061;-54
2022/04/26 11:35:10;;;;;;;27.85;5.03;;;;;;;0.29;80.19;99462.59;5026315;28;20050;-56
2022/04/26 11:37:47;;;;;;;29.00;5.35;;;;;;;0.22;80.32;99441.09;5026256;28;20267;-55
2022/04/26 11:40:25;;;;;;;26.15;5.25;;;;;;;0.16;80.48;99438.47;5026565;28;20056;-55
2022/04/26 11:42:58;;;;;;;13.40;3.55;;;;;;;0.09;80.92;99441.81;5026441;28;20236;-54
2022/04/26 11:45:34;;;;;;;24.63;4.55;;;;;;;0.08;81.01;99446.09;5026645;28;20054;-54
2022/04/26 11:48:10;;;;;;;30.08;4.63;;;;;;;0.04;81.20;99448.59;5026370;28;20089;-54
2022/04/26 11:50:42;;;;;;;29.52;4.90;;;;;;;0.08;81.13;99445.22;5026062;28;20045;-56
2022/04/26 11:53:14;;;;;;;27.15;4.78;;;;;;;0.10;81.20;99428.09;5025912;28;20084;-53
2022/04/26 11:55:46;;;;;;;29.98;5.47;;;;;;;-0.14;81.13;99383.31;5026287;28;20068;-54
2022/04/26 11:58:18;;;;;;;19.33;3.92;;;;;;;0.07;81.33;99423.78;5026098;28;20049;-54
2022/04/26 12:00:59;;;;;;;13.93;3.03;;;;;;;-0.20;81.39;99380.69;5026103;28;20339;-55
2022/04/26 12:03:33;;;;;;;20.45;5.10;;;;;;;-0.06;81.41;99391.09;5025836;28;20053;-53
2022/04/26 12:06:06;;;;;;;25.70;5.70;;;;;;;-0.01;81.95;99374.91;5025889;28;20050;-52
2022/04/26 12:08:39;;;;;;;25.30;4.40;;;;;;;0.02;81.49;99368.09;5024469;28;20073;-53
2022/04/26 12:11:20;;;;;;;25.40;5.28;;;;;;;-0.24;82.33;99337.84;5025808;28;20339;-54
2022/04/26 12:14:01;;;;;;;17.17;4.88;;;;;;;-0.03;82.13;99381.72;5025694;28;20072;-53
2022/04/26 12:16:33;;;;;;;22.45;4.35;;;;;;;-0.07;82.14;99372.28;5025835;28;20046;-54
2022/04/26 12:19:06;;;;;;;20.25;5.20;;;;;;;-0.04;82.34;99382.59;5025430;28;20053;-54
2022/04/26 12:21:47;;;;;;;19.52;4.15;;;;;;;-0.09;82.77;99371.38;5025872;28;20062;-53
2022/04/26 12:24:21;;;;;;;37.70;5.47;;;;;;;-0.10;82.94;99368.78;5025735;28;20061;-54
2022/04/26 12:26:54;;;;;;;18.98;3.80;;;;;;;-0.22;82.80;99333.59;5025566;28;20199;-56
2022/04/26 12:29:25;;;;;;;24.08;5.07;;;;;;;-0.08;82.99;99339.72;5025474;28;20067;-51
2022/04/26 12:31:56;;;;;;;18.38;3.97;;;;;;;-0.02;82.92;99326.97;5025291;28;20542;-54
2022/04/26 12:34:30;;;;;;;25.95;5.55;;;;;;;-0.03;82.60;99330.34;5025191;28;20310;-54
2022/04/26 12:37:03;;;;;;;26.90;5.35;;;;;;;-0.63;82.82;99238.09;5025575;28;20083;-52
2022/04/26 12:39:43;;;;;;;24.70;5.13;;;;;;;-0.03;82.96;99339.78;5025415;28;20053;-52
2022/04/26 12:42:15;;;;;;;23.05;4.85;;;;;;;-0.07;82.86;99331.19;5024877;28;20484;-54
2022/04/26 12:44:53;;;;;;;24.05;4.75;;;;;;;-0.28;83.34;99277.00;5025306;28;20109;-53
2022/04/26 12:50:33;;;;;;;21.17;4.68;;;;;;;0.01;83.39;99317.56;5025219;28;20040;-53
2022/04/26 12:53:06;;;;;;;27.67;4.97;;;;;;;0.06;83.36;99315.91;5024916;28;20081;-54
2022/04/26 12:55:39;;;;;;;23.45;5.35;;;;;;;0.01;83.13;99302.16;5024687;28;20200;-53
2022/04/26 12:58:11;;;;;;;32.03;5.63;;;;;;;-0.01;83.34;99305.56;5024862;28;20116;-53
2022/04/26 13:00:42;;;;;;;34.03;5.85;;;;;;;-0.03;83.16;99294.41;5025035;28;20064;-53
2022/04/26 13:03:17;;;;;;;30.98;5.15;;;;;;;-0.02;83.24;99264.47;5024538;28;20061;-54
2022/04/26 13:05:51;;;;;;;15.60;3.47;;;;;;;-0.02;83.14;99249.91;5025351;28;20066;-55
2022/04/26 13:08:23;;;;;;;33.47;5.97;;;;;;;-0.08;83.36;99213.88;5024650;28;20056;-53
2022/04/26 13:10:54;;;;;;;29.65;5.20;;;;;;;-0.04;83.59;99236.19;5024610;28;20324;-52
2022/04/26 13:13:27;;;;;;;19.70;3.60;;;;;;;-0.04;83.60;99215.66;5024597;28;20051;-53
2022/04/26 13:15:57;;;;;;;31.65;5.43;;;;;;;-0.02;83.81;99208.81;5024839;28;20494;-53
2022/04/26 13:18:29;;;;;;;24.98;4.38;;;;;;;0.00;83.44;99190.88;5024387;28;20088;-54
2022/04/26 13:21:02;;;;;;;26.38;4.80;;;;;;;-0.05;83.38;99178.00;5024202;28;20057;-52
2022/04/26 13:23:34;;;;;;;31.42;7.72;;;;;;;-0.03;83.66;99178.84;5024283;28;20081;-55
2022/04/26 13:26:06;;;;;;;37.60;5.65;;;;;;;0.02;83.47;99188.31;5024287;28;20054;-52
2022/04/26 13:28:37;;;;;;;23.33;4.68;;;;;;;-0.03;83.78;99191.69;5024719;28;20077;-54
2022/04/26 13:31:07;;;;;;;29.98;4.90;;;;;;;-0.03;83.66;99201.94;5024156;28;20054;-53
2022/04/26 13:33:41;;;;;;;32.97;5.72;;;;;;;0.01;83.78;99197.72;5024118;28;20152;-54
2022/04/26 13:36:14;;;;;;;24.88;5.80;;;;;;;-0.04;84.07;99200.25;5024199;28;20084;-51
2022/04/26 13:38:44;;;;;;;29.77;5.38;;;;;;;-0.07;83.86;99204.50;5024159;28;20352;-53
2022/04/26 13:41:15;;;;;;;19.95;3.70;;;;;;;-0.09;84.10;99212.19;5024119;28;20330;-53
2022/04/26 13:43:48;;;;;;;27.65;4.63;;;;;;;-0.06;84.07;99207.06;5024137;28;20081;-51
2022/04/26 13:46:19;;;;;;;29.25;5.70;;;;;;;-0.02;83.79;99208.81;5024176;28;20052;-53
2022/04/26 13:48:52;;;;;;;26.08;4.68;;;;;;;-0.01;84.16;99205.41;5023945;28;20103;-53
2022/04/26 13:51:29;;;;;;;33.63;5.35;;;;;;;0.02;84.11;99189.16;5024305;28;20053;-53
2022/04/26 13:53:59;;;;;;;23.48;5.35;;;;;;;-0.41;83.84;99118.59;5024156;28;20085;-52
2022/04/26 13:56:30;;;;;;;34.22;5.15;;;;;;;-0.03;83.80;99191.69;5023944;28;20053;-53
2022/04/26 13:59:01;;;;;;;34.03;5.68;;;;;;;-0.03;84.34;99171.13;5024008;28;20060;-53
2022/04/26 14:01:31;;;;;;;35.22;5.40;;;;;;;-0.03;84.28;99165.16;5023692;28;20056;-54
2022/04/26 14:04:02;;;;;;;26.85;5.38;;;;;;;-0.05;84.38;99160.03;5023759;28;20054;-53
2022/04/26 14:06:34;;;;;;;33.58;6.90;;;;;;;-0.09;84.62;99154.84;5023582;28;20329;-53
2022/04/26 14:09:05;;;;;;;22.52;5.38;;;;;;;-0.08;84.51;99142.00;5023741;28;20109;-53
2022/04/26 14:11:36;;;;;;;29.40;5.32;;;;;;;-0.44;84.54;99063.84;5023465;28;20049;-54
2022/04/26 14:22:46;;;;;;;34.38;5.80;;;;;;;-0.01;84.46;99102.69;5023679;28;20148;-52
2022/04/26 14:25:17;;;;;;;42.03;5.88;;;;;;;-0.03;84.77;99088.09;5023869;28;20352;-53
2022/04/26 14:27:49;;;;;;;37.63;6.00;;;;;;;0.02;84.83;99077.88;5023600;28;20058;-52
2022/04/26 14:30:20;;;;;;;22.20;5.70;;;;;;;0.09;84.68;99056.53;5023441;28;20062;-54
2022/04/26 14:33:09;;;;;;;;;;;;;;;0.05;84.48;99044.50;5026941;28;20120;-53
2022/04/26 14:35:39;;;;;;;29.90;5.90;;;;;;;0.01;84.25;99033.34;5027216;28;19967;-53
2022/04/26 14:38:11;;;;;;;30.67;5.47;;;;;;;-0.02;84.61;99034.19;5027299;28;20081;-53
2022/04/26 14:40:42;;;;;;;29.73;5.60;;;;;;;-0.04;84.42;99024.78;5027353;28;20080;-53
2022/04/26 14:43:14;;;;;;;31.15;7.05;;;;;;;-0.06;84.74;99022.19;5028188;28;20072;-54
2022/04/26 14:45:45;;;;;;;33.38;6.32;;;;;;;-0.01;84.85;99030.78;5028230;28;20084;-54
2022/04/26 14:48:16;;;;;;;25.73;6.00;;;;;;;0.05;84.90;99023.94;5026797;28;20109;-54
2022/04/26 14:50:56;;;;;;;39.28;6.68;;;;;;;-0.02;84.88;98997.41;5027512;28;20126;-55
2022/04/26 14:53:28;;;;;;;40.53;5.65;;;;;;;0.02;84.99;99003.41;5027356;28;20045;-55
2022/04/26 14:56:09;;;;;;;44.63;6.13;;;;;;;0.07;84.70;98994.00;5028098;28;20117;-54
2022/04/26 14:59:02;;;;;;;40.30;6.45;;;;;;;0.01;84.91;98981.16;5026625;28;20052;-56
2022/04/26 15:01:40;;;;;;;39.35;5.45;;;;;;;0.10;84.41;98976.03;5026859;28;20076;-55
2022/04/26 15:04:11;;;;;;;38.20;7.40;;;;;;;0.06;84.62;98959.75;5026045;28;20064;-54
2022/04/26 15:06:42;;;;;;;27.35;6.28;;;;;;;0.04;84.78;98955.47;5028427;28;20057;-53
2022/04/26 15:17:38;;;;;;;32.50;5.13;;;;;;;0.04;84.56;98919.53;5029836;28;20113;-53
2022/04/26 15:20:11;;;;;;;30.33;5.32;;;;;;;-0.54;84.65;98807.16;5029621;28;20045;-53
2022/04/26 15:22:42;;;;;;;35.10;5.72;;;;;;;0.08;84.56;98895.56;5035368;28;20352;-55
2022/04/26 15:25:15;;;;;;;34.75;6.15;;;;;;;-0.01;84.62;98876.69;5036728;28;20065;-53
2022/04/26 15:27:46;;;;;;;38.67;7.15;;;;;;;0.01;84.74;98873.28;5039717;28;20148;-53
2022/04/26 15:30:17;;;;;;;32.85;6.78;;;;;;;0.06;84.63;98866.47;5039578;28;20095;-52
2022/04/26 15:32:48;;;;;;;29.95;4.43;;;;;;;-0.03;84.55;98845.00;5039776;28;20061;-54
2022/04/26 15:35:18;;;;;;;31.05;5.68;;;;;;;0.06;84.72;98845.91;5039507;28;20088;-54
2022/04/26 15:37:49;;;;;;;34.33;6.00;;;;;;;-0.08;84.73;98822.75;5039619;28;20080;-53
2022/04/26 15:40:21;;;;;;;29.83;5.90;;;;;;;0.02;84.89;98833.91;5039734;28;20053;-54
2022/04/26 15:42:52;;;;;;;36.85;6.07;;;;;;;0.09;85.14;98825.38;5039548;28;20379;-55
2022/04/26 15:45:23;;;;;;;37.95;6.45;;;;;;;0.13;85.19;98822.81;5039747;28;20065;-53
2022/04/26 15:47:54;;;;;;;45.20;6.63;;;;;;;0.17;84.58;98818.53;5039810;28;20072;-54
2022/04/26 15:50:25;;;;;;;43.45;6.18;;;;;;;0.17;84.52;98808.25;5039605;28;20049;-54
2022/04/26 15:52:55;;;;;;;30.45;4.93;;;;;;;0.11;84.46;98800.56;5039695;28;20287;-51
2022/04/26 15:55:27;;;;;;;36.78;6.20;;;;;;;0.09;84.90;98789.41;5039478;28;20057;-54
2022/04/26 15:57:58;;;;;;;29.80;5.97;;;;;;;0.08;85.18;98783.44;5039348;28;20049;-54
2022/04/26 16:00:29;;;;;;;26.10;4.75;;;;;;;0.10;84.77;98788.53;5039318;28;20057;-54
2022/04/26 16:03:01;;;;;;;31.63;5.97;;;;;;;0.10;84.88;98780.84;5039108;28;20050;-53
2022/04/26 16:05:32;;;;;;;38.10;6.20;;;;;;;0.09;84.68;98774.84;5039167;28;20053;-54
2022/04/26 16:08:03;;;;;;;31.60;6.13;;;;;;;0.02;84.64;98749.16;5039099;28;20366;-53
2022/04/26 16:21:45;;;;;;;23.55;5.13;;;;;;;-0.04;85.10;98707.22;5038641;28;20057;-54